sensor_id;sensor_type;location;lat;lon;timestamp;P1;durP1;ratioP1;P2;durP2;ratioP2
17915;SDS011;9083;49.156;8.982;2023-04-06T00:01:20;8.83;;;6.53;;
17915;SDS011;9083;49.156;8.982;2023-04-06T00:03:46;10.20;;;6.17;;
17915;SDS011;9083;49.156;8.982;2023-04-06T00:06:12;8.57;;;5.47;;
17915;SDS011;9083;49.156;8.982;2023-04-06T00:08:39;7.87;;;5.80;;
17915;SDS011;9083;49.156;8.982;2023-04-06T00:11:06;8.20;;;5.53;;
17915;SDS011;9083;49.156;8.982;2023-04-06T00:13:34;8.03;;;5.97;;
17915;SDS011;9083;49.156;8.982;2023-04-06T00:16:00;8.03;;;5.77;;
17915;SDS011;9083;49.156;8.982;2023-04-06T00:18:27;8.47;;;6.20;;
17915;SDS011;9083;49.156;8.982;2023-04-06T00:20:53;7.97;;;5.57;;
17915;SDS011;9083;49.156;8.982;2023-04-06T00:23:20;8.07;;;6.10;;
17915;SDS011;9083;49.156;8.982;2023-04-06T00:25:47;8.00;;;6.80;;
17915;SDS011;9083;49.156;8.982;2023-04-06T00:28:13;11.03;;;6.90;;
17915;SDS011;9083;49.156;8.982;2023-04-06T00:30:41;9.20;;;6.37;;
17915;SDS011;9083;49.156;8.982;2023-04-06T00:33:07;12.63;;;6.40;;
17915;SDS011;9083;49.156;8.982;2023-04-06T00:35:34;13.20;;;6.67;;
17915;SDS011;9083;49.156;8.982;2023-04-06T00:38:00;9.73;;;6.40;;
17915;SDS011;9083;49.156;8.982;2023-04-06T00:40:26;16.20;;;7.63;;
17915;SDS011;9083;49.156;8.982;2023-04-06T00:42:53;17.77;;;8.77;;
17915;SDS011;9083;49.156;8.982;2023-04-06T00:45:19;19.63;;;8.67;;
17915;SDS011;9083;49.156;8.982;2023-04-06T00:47:47;17.87;;;7.50;;
17915;SDS011;9083;49.156;8.982;2023-04-06T00:50:14;17.40;;;8.13;;
17915;SDS011;9083;49.156;8.982;2023-04-06T00:52:40;12.43;;;7.23;;
17915;SDS011;9083;49.156;8.982;2023-04-06T00:55:07;13.50;;;7.50;;
17915;SDS011;9083;49.156;8.982;2023-04-06T00:57:33;14.40;;;6.43;;
17915;SDS011;9083;49.156;8.982;2023-04-06T01:00:00;10.57;;;7.17;;
17915;SDS011;9083;49.156;8.982;2023-04-06T01:02:27;10.90;;;6.67;;
17915;SDS011;9083;49.156;8.982;2023-04-06T01:04:54;8.97;;;6.57;;
17915;SDS011;9083;49.156;8.982;2023-04-06T01:07:21;7.73;;;6.57;;
17915;SDS011;9083;49.156;8.982;2023-04-06T01:09:47;11.77;;;7.30;;
17915;SDS011;9083;49.156;8.982;2023-04-06T01:12:14;12.97;;;7.37;;
17915;SDS011;9083;49.156;8.982;2023-04-06T01:14:40;17.17;;;8.03;;
17915;SDS011;9083;49.156;8.982;2023-04-06T01:17:06;14.87;;;8.43;;
17915;SDS011;9083;49.156;8.982;2023-04-06T01:19:36;14.60;;;8.00;;
17915;SDS011;9083;49.156;8.982;2023-04-06T01:22:03;15.77;;;7.87;;
17915;SDS011;9083;49.156;8.982;2023-04-06T01:24:31;13.47;;;7.77;;
17915;SDS011;9083;49.156;8.982;2023-04-06T01:26:58;12.30;;;7.60;;
17915;SDS011;9083;49.156;8.982;2023-04-06T01:29:25;16.10;;;7.67;;
17915;SDS011;9083;49.156;8.982;2023-04-06T01:31:52;18.93;;;7.97;;
17915;SDS011;9083;49.156;8.982;2023-04-06T01:34:18;14.40;;;7.80;;
17915;SDS011;9083;49.156;8.982;2023-04-06T01:36:45;13.07;;;8.07;;
17915;SDS011;9083;49.156;8.982;2023-04-06T01:39:11;15.10;;;7.03;;
17915;SDS011;9083;49.156;8.982;2023-04-06T01:41:39;12.10;;;7.30;;
17915;SDS011;9083;49.156;8.982;2023-04-06T01:44:05;12.43;;;7.60;;
17915;SDS011;9083;49.156;8.982;2023-04-06T01:46:32;14.37;;;8.60;;
17915;SDS011;9083;49.156;8.982;2023-04-06T01:48:58;11.93;;;7.10;;
17915;SDS011;9083;49.156;8.982;2023-04-06T01:51:25;8.63;;;6.60;;
17915;SDS011;9083;49.156;8.982;2023-04-06T01:53:51;10.23;;;7.10;;
17915;SDS011;9083;49.156;8.982;2023-04-06T01:56:18;12.67;;;6.70;;
17915;SDS011;9083;49.156;8.982;2023-04-06T01:58:46;11.60;;;7.10;;
17915;SDS011;9083;49.156;8.982;2023-04-06T02:01:12;12.40;;;7.33;;
17915;SDS011;9083;49.156;8.982;2023-04-06T02:03:39;8.40;;;7.10;;
17915;SDS011;9083;49.156;8.982;2023-04-06T02:06:05;10.57;;;6.53;;
17915;SDS011;9083;49.156;8.982;2023-04-06T02:08:32;11.47;;;7.10;;
17915;SDS011;9083;49.156;8.982;2023-04-06T02:10:58;12.37;;;8.17;;
17915;SDS011;9083;49.156;8.982;2023-04-06T02:13:24;16.17;;;9.03;;
17915;SDS011;9083;49.156;8.982;2023-04-06T02:15:52;15.17;;;8.13;;
17915;SDS011;9083;49.156;8.982;2023-04-06T02:18:19;13.00;;;7.63;;
17915;SDS011;9083;49.156;8.982;2023-04-06T02:20:45;9.43;;;6.93;;
17915;SDS011;9083;49.156;8.982;2023-04-06T02:23:12;13.93;;;7.23;;
17915;SDS011;9083;49.156;8.982;2023-04-06T02:25:38;10.63;;;7.77;;
17915;SDS011;9083;49.156;8.982;2023-04-06T02:28:05;12.67;;;7.93;;
17915;SDS011;9083;49.156;8.982;2023-04-06T02:30:31;13.43;;;8.17;;
17915;SDS011;9083;49.156;8.982;2023-04-06T02:32:59;11.20;;;7.97;;
17915;SDS011;9083;49.156;8.982;2023-04-06T02:35:27;10.33;;;7.77;;
17915;SDS011;9083;49.156;8.982;2023-04-06T02:37:53;12.03;;;8.23;;
17915;SDS011;9083;49.156;8.982;2023-04-06T02:40:26;13.57;;;9.30;;
17915;SDS011;9083;49.156;8.982;2023-04-06T02:42:52;16.97;;;10.33;;
17915;SDS011;9083;49.156;8.982;2023-04-06T02:45:18;17.33;;;10.70;;
17915;SDS011;9083;49.156;8.982;2023-04-06T02:47:45;15.63;;;10.37;;
17915;SDS011;9083;49.156;8.982;2023-04-06T02:50:13;14.77;;;9.87;;
17915;SDS011;9083;49.156;8.982;2023-04-06T02:52:40;14.37;;;9.00;;
17915;SDS011;9083;49.156;8.982;2023-04-06T02:55:06;14.77;;;8.77;;
17915;SDS011;9083;49.156;8.982;2023-04-06T02:57:33;20.03;;;10.47;;
17915;SDS011;9083;49.156;8.982;2023-04-06T02:59:59;57.37;;;22.13;;
17915;SDS011;9083;49.156;8.982;2023-04-06T03:02:26;59.10;;;23.20;;
17915;SDS011;9083;49.156;8.982;2023-04-06T03:04:52;45.60;;;19.37;;
17915;SDS011;9083;49.156;8.982;2023-04-06T03:07:20;32.80;;;14.20;;
17915;SDS011;9083;49.156;8.982;2023-04-06T03:09:46;21.97;;;12.93;;
17915;SDS011;9083;49.156;8.982;2023-04-06T03:12:13;18.07;;;11.37;;
17915;SDS011;9083;49.156;8.982;2023-04-06T03:14:39;14.63;;;9.33;;
17915;SDS011;9083;49.156;8.982;2023-04-06T03:17:05;14.37;;;9.57;;
17915;SDS011;9083;49.156;8.982;2023-04-06T03:19:32;16.63;;;10.60;;
17915;SDS011;9083;49.156;8.982;2023-04-06T03:21:58;16.73;;;10.30;;
17915;SDS011;9083;49.156;8.982;2023-04-06T03:24:26;20.90;;;10.07;;
17915;SDS011;9083;49.156;8.982;2023-04-06T03:26:52;14.80;;;9.27;;
17915;SDS011;9083;49.156;8.982;2023-04-06T03:29:20;19.17;;;9.93;;
17915;SDS011;9083;49.156;8.982;2023-04-06T03:31:46;19.00;;;9.87;;
17915;SDS011;9083;49.156;8.982;2023-04-06T03:34:12;11.90;;;9.07;;
17915;SDS011;9083;49.156;8.982;2023-04-06T03:36:39;13.73;;;8.93;;
17915;SDS011;9083;49.156;8.982;2023-04-06T03:39:05;11.37;;;9.13;;
17915;SDS011;9083;49.156;8.982;2023-04-06T03:41:33;11.77;;;7.77;;
17915;SDS011;9083;49.156;8.982;2023-04-06T03:43:59;13.83;;;8.63;;
17915;SDS011;9083;49.156;8.982;2023-04-06T03:46:26;12.40;;;8.20;;
17915;SDS011;9083;49.156;8.982;2023-04-06T03:48:52;15.77;;;8.43;;
17915;SDS011;9083;49.156;8.982;2023-04-06T03:51:18;10.33;;;7.43;;
17915;SDS011;9083;49.156;8.982;2023-04-06T03:53:45;11.20;;;7.57;;
17915;SDS011;9083;49.156;8.982;2023-04-06T03:56:12;10.63;;;7.80;;
17915;SDS011;9083;49.156;8.982;2023-04-06T03:58:39;14.50;;;8.60;;
17915;SDS011;9083;49.156;8.982;2023-04-06T04:01:06;14.73;;;8.93;;
17915;SDS011;9083;49.156;8.982;2023-04-06T04:03:32;11.53;;;8.33;;
17915;SDS011;9083;49.156;8.982;2023-04-06T04:05:59;10.43;;;7.83;;
17915;SDS011;9083;49.156;8.982;2023-04-06T04:08:25;11.07;;;7.80;;
17915;SDS011;9083;49.156;8.982;2023-04-06T04:10:51;9.67;;;7.90;;
17915;SDS011;9083;49.156;8.982;2023-04-06T04:13:18;12.67;;;8.53;;
17915;SDS011;9083;49.156;8.982;2023-04-06T04:15:46;11.37;;;8.33;;
17915;SDS011;9083;49.156;8.982;2023-04-06T04:18:13;13.13;;;8.13;;
17915;SDS011;9083;49.156;8.982;2023-04-06T04:20:40;13.33;;;8.90;;
17915;SDS011;9083;49.156;8.982;2023-04-06T04:23:06;12.43;;;8.67;;
17915;SDS011;9083;49.156;8.982;2023-04-06T04:25:33;14.87;;;9.03;;
17915;SDS011;9083;49.156;8.982;2023-04-06T04:27:59;17.93;;;10.07;;
17915;SDS011;9083;49.156;8.982;2023-04-06T04:30:25;23.93;;;9.83;;
17915;SDS011;9083;49.156;8.982;2023-04-06T04:32:53;15.67;;;9.07;;
17915;SDS011;9083;49.156;8.982;2023-04-06T04:35:20;16.40;;;10.23;;
17915;SDS011;9083;49.156;8.982;2023-04-06T04:37:46;25.77;;;9.93;;
17915;SDS011;9083;49.156;8.982;2023-04-06T04:40:12;30.40;;;11.33;;
17915;SDS011;9083;49.156;8.982;2023-04-06T04:42:39;13.40;;;9.40;;
17915;SDS011;9083;49.156;8.982;2023-04-06T04:45:06;15.37;;;9.40;;
17915;SDS011;9083;49.156;8.982;2023-04-06T04:47:32;12.20;;;7.73;;
17915;SDS011;9083;49.156;8.982;2023-04-06T04:50:00;21.03;;;9.77;;
17915;SDS011;9083;49.156;8.982;2023-04-06T04:52:27;13.73;;;9.70;;
17915;SDS011;9083;49.156;8.982;2023-04-06T04:54:53;31.13;;;14.43;;
17915;SDS011;9083;49.156;8.982;2023-04-06T04:57:20;23.23;;;10.37;;
17915;SDS011;9083;49.156;8.982;2023-04-06T04:59:46;18.83;;;11.07;;
17915;SDS011;9083;49.156;8.982;2023-04-06T05:02:12;20.33;;;11.63;;
17915;SDS011;9083;49.156;8.982;2023-04-06T05:04:39;27.57;;;11.60;;
17915;SDS011;9083;49.156;8.982;2023-04-06T05:07:07;53.70;;;13.33;;
17915;SDS011;9083;49.156;8.982;2023-04-06T05:09:34;25.23;;;11.37;;
17915;SDS011;9083;49.156;8.982;2023-04-06T05:12:00;36.57;;;12.17;;
17915;SDS011;9083;49.156;8.982;2023-04-06T05:14:27;27.27;;;11.67;;
17915;SDS011;9083;49.156;8.982;2023-04-06T05:16:53;42.37;;;13.90;;
17915;SDS011;9083;49.156;8.982;2023-04-06T05:19:20;15.43;;;9.60;;
17915;SDS011;9083;49.156;8.982;2023-04-06T05:21:46;14.70;;;9.53;;
17915;SDS011;9083;49.156;8.982;2023-04-06T05:24:14;15.53;;;9.47;;
17915;SDS011;9083;49.156;8.982;2023-04-06T05:26:41;16.80;;;9.33;;
17915;SDS011;9083;49.156;8.982;2023-04-06T05:29:07;18.30;;;9.10;;
17915;SDS011;9083;49.156;8.982;2023-04-06T05:31:34;19.87;;;10.10;;
17915;SDS011;9083;49.156;8.982;2023-04-06T05:34:00;22.17;;;9.90;;
17915;SDS011;9083;49.156;8.982;2023-04-06T05:36:26;18.03;;;9.70;;
17915;SDS011;9083;49.156;8.982;2023-04-06T05:38:53;14.87;;;9.50;;
17915;SDS011;9083;49.156;8.982;2023-04-06T05:41:22;31.50;;;10.73;;
17915;SDS011;9083;49.156;8.982;2023-04-06T05:43:49;21.17;;;10.03;;
17915;SDS011;9083;49.156;8.982;2023-04-06T05:46:15;11.80;;;8.57;;
17915;SDS011;9083;49.156;8.982;2023-04-06T05:48:41;15.27;;;8.63;;
17915;SDS011;9083;49.156;8.982;2023-04-06T05:51:08;15.07;;;9.10;;
17915;SDS011;9083;49.156;8.982;2023-04-06T05:53:34;13.37;;;8.57;;
17915;SDS011;9083;49.156;8.982;2023-04-06T05:56:01;16.07;;;9.13;;
17915;SDS011;9083;49.156;8.982;2023-04-06T05:58:29;13.83;;;8.30;;
17915;SDS011;9083;49.156;8.982;2023-04-06T06:00:56;13.93;;;8.57;;
17915;SDS011;9083;49.156;8.982;2023-04-06T06:03:23;14.87;;;8.30;;
17915;SDS011;9083;49.156;8.982;2023-04-06T06:05:52;13.90;;;8.67;;
17915;SDS011;9083;49.156;8.982;2023-04-06T06:08:18;14.67;;;9.47;;
17915;SDS011;9083;49.156;8.982;2023-04-06T06:10:45;22.60;;;11.10;;
17915;SDS011;9083;49.156;8.982;2023-04-06T06:13:11;23.10;;;11.77;;
17915;SDS011;9083;49.156;8.982;2023-04-06T06:15:39;22.90;;;10.30;;
17915;SDS011;9083;49.156;8.982;2023-04-06T06:18:06;20.13;;;11.17;;
17915;SDS011;9083;49.156;8.982;2023-04-06T06:20:32;15.73;;;10.30;;
17915;SDS011;9083;49.156;8.982;2023-04-06T06:22:58;21.47;;;11.00;;
17915;SDS011;9083;49.156;8.982;2023-04-06T06:25:25;20.50;;;11.30;;
17915;SDS011;9083;49.156;8.982;2023-04-06T06:27:51;25.20;;;11.27;;
17915;SDS011;9083;49.156;8.982;2023-04-06T06:30:18;19.30;;;11.47;;
17915;SDS011;9083;49.156;8.982;2023-04-06T06:32:45;24.63;;;11.30;;
17915;SDS011;9083;49.156;8.982;2023-04-06T06:35:12;16.70;;;10.70;;
17915;SDS011;9083;49.156;8.982;2023-04-06T06:37:38;32.80;;;13.50;;
17915;SDS011;9083;49.156;8.982;2023-04-06T06:40:05;21.20;;;12.63;;
17915;SDS011;9083;49.156;8.982;2023-04-06T06:42:32;41.70;;;12.93;;
17915;SDS011;9083;49.156;8.982;2023-04-06T06:44:58;16.63;;;9.40;;
17915;SDS011;9083;49.156;8.982;2023-04-06T06:47:24;15.83;;;10.33;;
17915;SDS011;9083;49.156;8.982;2023-04-06T06:49:52;23.20;;;10.77;;
17915;SDS011;9083;49.156;8.982;2023-04-06T06:52:19;19.67;;;11.30;;
17915;SDS011;9083;49.156;8.982;2023-04-06T06:54:45;18.97;;;11.93;;
17915;SDS011;9083;49.156;8.982;2023-04-06T06:57:12;18.13;;;11.03;;
17915;SDS011;9083;49.156;8.982;2023-04-06T06:59:38;17.40;;;10.23;;
17915;SDS011;9083;49.156;8.982;2023-04-06T07:02:04;15.87;;;10.80;;
17915;SDS011;9083;49.156;8.982;2023-04-06T07:04:31;18.57;;;10.37;;
17915;SDS011;9083;49.156;8.982;2023-04-06T07:06:59;19.17;;;10.07;;
17915;SDS011;9083;49.156;8.982;2023-04-06T07:09:26;17.50;;;11.50;;
17915;SDS011;9083;49.156;8.982;2023-04-06T07:11:52;17.60;;;11.40;;
17915;SDS011;9083;49.156;8.982;2023-04-06T07:14:19;22.53;;;11.27;;
17915;SDS011;9083;49.156;8.982;2023-04-06T07:16:45;18.67;;;11.57;;
17915;SDS011;9083;49.156;8.982;2023-04-06T07:19:13;15.80;;;11.00;;
17915;SDS011;9083;49.156;8.982;2023-04-06T07:21:40;17.10;;;10.73;;
17915;SDS011;9083;49.156;8.982;2023-04-06T07:24:08;17.77;;;11.93;;
17915;SDS011;9083;49.156;8.982;2023-04-06T07:26:34;16.53;;;10.33;;
17915;SDS011;9083;49.156;8.982;2023-04-06T07:29:00;20.57;;;11.73;;
17915;SDS011;9083;49.156;8.982;2023-04-06T07:31:27;17.43;;;12.03;;
17915;SDS011;9083;49.156;8.982;2023-04-06T07:33:53;19.60;;;11.93;;
17915;SDS011;9083;49.156;8.982;2023-04-06T07:36:20;17.47;;;11.33;;
17915;SDS011;9083;49.156;8.982;2023-04-06T07:38:46;18.70;;;11.23;;
17915;SDS011;9083;49.156;8.982;2023-04-06T07:41:15;23.10;;;10.93;;
17915;SDS011;9083;49.156;8.982;2023-04-06T07:43:41;17.40;;;10.83;;
17915;SDS011;9083;49.156;8.982;2023-04-06T07:46:08;27.90;;;13.00;;
17915;SDS011;9083;49.156;8.982;2023-04-06T07:48:34;43.57;;;12.37;;
17915;SDS011;9083;49.156;8.982;2023-04-06T07:51:02;32.17;;;14.00;;
17915;SDS011;9083;49.156;8.982;2023-04-06T07:53:29;25.13;;;13.03;;
17915;SDS011;9083;49.156;8.982;2023-04-06T07:55:55;16.97;;;10.73;;
17915;SDS011;9083;49.156;8.982;2023-04-06T07:58:23;14.80;;;10.00;;
17915;SDS011;9083;49.156;8.982;2023-04-06T08:00:49;13.57;;;9.30;;
17915;SDS011;9083;49.156;8.982;2023-04-06T08:03:15;14.80;;;9.40;;
17915;SDS011;9083;49.156;8.982;2023-04-06T08:05:42;21.57;;;9.43;;
17915;SDS011;9083;49.156;8.982;2023-04-06T08:08:09;17.77;;;11.30;;
17915;SDS011;9083;49.156;8.982;2023-04-06T08:10:35;17.57;;;10.57;;
17915;SDS011;9083;49.156;8.982;2023-04-06T08:13:01;17.13;;;10.77;;
17915;SDS011;9083;49.156;8.982;2023-04-06T08:15:29;18.10;;;10.43;;
17915;SDS011;9083;49.156;8.982;2023-04-06T08:17:55;18.93;;;10.53;;
17915;SDS011;9083;49.156;8.982;2023-04-06T08:20:22;16.03;;;9.23;;
17915;SDS011;9083;49.156;8.982;2023-04-06T08:22:49;10.37;;;7.60;;
17915;SDS011;9083;49.156;8.982;2023-04-06T08:25:15;14.10;;;9.17;;
17915;SDS011;9083;49.156;8.982;2023-04-06T08:27:42;13.33;;;9.00;;
17915;SDS011;9083;49.156;8.982;2023-04-06T08:30:08;14.13;;;7.87;;
17915;SDS011;9083;49.156;8.982;2023-04-06T08:32:36;25.10;;;12.10;;
17915;SDS011;9083;49.156;8.982;2023-04-06T08:35:03;12.20;;;9.20;;
17915;SDS011;9083;49.156;8.982;2023-04-06T08:37:29;28.30;;;10.77;;
17915;SDS011;9083;49.156;8.982;2023-04-06T08:39:57;15.67;;;8.90;;
17915;SDS011;9083;49.156;8.982;2023-04-06T08:42:24;31.43;;;12.33;;
17915;SDS011;9083;49.156;8.982;2023-04-06T08:44:51;15.43;;;9.90;;
17915;SDS011;9083;49.156;8.982;2023-04-06T08:47:18;15.20;;;9.37;;
17915;SDS011;9083;49.156;8.982;2023-04-06T08:49:45;11.70;;;8.13;;
17915;SDS011;9083;49.156;8.982;2023-04-06T08:52:12;21.03;;;10.60;;
17915;SDS011;9083;49.156;8.982;2023-04-06T08:54:39;18.60;;;10.47;;
17915;SDS011;9083;49.156;8.982;2023-04-06T08:57:05;13.53;;;7.83;;
17915;SDS011;9083;49.156;8.982;2023-04-06T08:59:33;24.20;;;12.03;;
17915;SDS011;9083;49.156;8.982;2023-04-06T09:02:00;26.07;;;10.40;;
17915;SDS011;9083;49.156;8.982;2023-04-06T09:04:28;14.00;;;7.87;;
17915;SDS011;9083;49.156;8.982;2023-04-06T09:06:56;11.80;;;7.20;;
17915;SDS011;9083;49.156;8.982;2023-04-06T09:09:23;14.87;;;7.77;;
17915;SDS011;9083;49.156;8.982;2023-04-06T09:11:50;16.47;;;7.87;;
17915;SDS011;9083;49.156;8.982;2023-04-06T09:14:16;11.47;;;7.73;;
17915;SDS011;9083;49.156;8.982;2023-04-06T09:16:44;9.67;;;7.40;;
17915;SDS011;9083;49.156;8.982;2023-04-06T09:19:11;13.47;;;9.20;;
17915;SDS011;9083;49.156;8.982;2023-04-06T09:21:37;13.77;;;8.73;;
17915;SDS011;9083;49.156;8.982;2023-04-06T09:24:07;18.27;;;8.67;;
17915;SDS011;9083;49.156;8.982;2023-04-06T09:26:43;12.27;;;8.50;;
17915;SDS011;9083;49.156;8.982;2023-04-06T09:29:21;17.80;;;8.50;;
17915;SDS011;9083;49.156;8.982;2023-04-06T09:31:48;10.33;;;7.17;;
17915;SDS011;9083;49.156;8.982;2023-04-06T09:34:20;9.23;;;5.43;;
17915;SDS011;9083;49.156;8.982;2023-04-06T09:36:46;12.00;;;7.37;;
17915;SDS011;9083;49.156;8.982;2023-04-06T09:39:14;9.47;;;7.70;;
17915;SDS011;9083;49.156;8.982;2023-04-06T09:41:40;13.20;;;8.03;;
17915;SDS011;9083;49.156;8.982;2023-04-06T09:44:08;13.97;;;7.93;;
17915;SDS011;9083;49.156;8.982;2023-04-06T09:46:35;12.83;;;7.10;;
17915;SDS011;9083;49.156;8.982;2023-04-06T09:49:02;22.67;;;8.53;;
17915;SDS011;9083;49.156;8.982;2023-04-06T09:51:30;11.03;;;7.33;;
17915;SDS011;9083;49.156;8.982;2023-04-06T09:53:57;9.43;;;7.33;;
17915;SDS011;9083;49.156;8.982;2023-04-06T09:56:27;10.93;;;6.30;;
17915;SDS011;9083;49.156;8.982;2023-04-06T09:58:55;7.83;;;6.33;;
17915;SDS011;9083;49.156;8.982;2023-04-06T10:01:22;9.83;;;6.80;;
17915;SDS011;9083;49.156;8.982;2023-04-06T10:03:54;8.17;;;6.23;;
17915;SDS011;9083;49.156;8.982;2023-04-06T10:06:22;13.53;;;6.77;;
17915;SDS011;9083;49.156;8.982;2023-04-06T10:08:50;16.53;;;8.03;;
17915;SDS011;9083;49.156;8.982;2023-04-06T10:11:19;21.10;;;10.33;;
17915;SDS011;9083;49.156;8.982;2023-04-06T10:13:48;11.90;;;6.87;;
17915;SDS011;9083;49.156;8.982;2023-04-06T10:16:15;9.40;;;6.50;;
17915;SDS011;9083;49.156;8.982;2023-04-06T10:18:41;9.63;;;6.37;;
17915;SDS011;9083;49.156;8.982;2023-04-06T10:21:11;6.93;;;4.80;;
17915;SDS011;9083;49.156;8.982;2023-04-06T10:23:40;9.67;;;6.97;;
17915;SDS011;9083;49.156;8.982;2023-04-06T10:26:12;13.93;;;7.43;;
17915;SDS011;9083;49.156;8.982;2023-04-06T10:28:40;10.97;;;5.57;;
17915;SDS011;9083;49.156;8.982;2023-04-06T10:31:08;13.40;;;6.67;;
17915;SDS011;9083;49.156;8.982;2023-04-06T10:33:34;11.23;;;7.33;;
17915;SDS011;9083;49.156;8.982;2023-04-06T10:36:09;12.73;;;6.77;;
17915;SDS011;9083;49.156;8.982;2023-04-06T10:38:36;16.23;;;7.53;;
17915;SDS011;9083;49.156;8.982;2023-04-06T10:41:05;6.67;;;5.20;;
17915;SDS011;9083;49.156;8.982;2023-04-06T10:43:33;10.43;;;6.23;;
17915;SDS011;9083;49.156;8.982;2023-04-06T10:46:00;8.40;;;5.27;;
17915;SDS011;9083;49.156;8.982;2023-04-06T10:48:36;12.87;;;7.00;;
17915;SDS011;9083;49.156;8.982;2023-04-06T10:51:07;7.10;;;5.77;;
17915;SDS011;9083;49.156;8.982;2023-04-06T10:53:33;5.37;;;4.57;;
17915;SDS011;9083;49.156;8.982;2023-04-06T10:56:00;13.17;;;6.47;;
17915;SDS011;9083;49.156;8.982;2023-04-06T10:58:27;9.80;;;7.07;;
17915;SDS011;9083;49.156;8.982;2023-04-06T11:00:54;13.97;;;6.63;;
17915;SDS011;9083;49.156;8.982;2023-04-06T11:03:21;14.50;;;8.57;;
17915;SDS011;9083;49.156;8.982;2023-04-06T11:05:49;19.33;;;8.10;;
17915;SDS011;9083;49.156;8.982;2023-04-06T11:08:27;21.33;;;8.27;;
17915;SDS011;9083;49.156;8.982;2023-04-06T11:11:03;12.17;;;7.70;;
17915;SDS011;9083;49.156;8.982;2023-04-06T11:13:36;13.10;;;7.80;;
17915;SDS011;9083;49.156;8.982;2023-04-06T11:16:02;10.20;;;6.30;;
17915;SDS011;9083;49.156;8.982;2023-04-06T11:18:30;16.00;;;7.97;;
17915;SDS011;9083;49.156;8.982;2023-04-06T11:20:58;13.87;;;6.83;;
17915;SDS011;9083;49.156;8.982;2023-04-06T11:23:25;18.63;;;7.83;;
17915;SDS011;9083;49.156;8.982;2023-04-06T11:25:51;15.73;;;6.57;;
17915;SDS011;9083;49.156;8.982;2023-04-06T11:28:18;13.87;;;7.63;;
17915;SDS011;9083;49.156;8.982;2023-04-06T11:30:44;15.60;;;7.70;;
17915;SDS011;9083;49.156;8.982;2023-04-06T11:33:11;13.97;;;9.20;;
17915;SDS011;9083;49.156;8.982;2023-04-06T11:35:37;15.23;;;7.93;;
17915;SDS011;9083;49.156;8.982;2023-04-06T11:38:05;12.80;;;7.97;;
17915;SDS011;9083;49.156;8.982;2023-04-06T11:40:31;13.47;;;6.97;;
17915;SDS011;9083;49.156;8.982;2023-04-06T11:42:58;14.93;;;6.90;;
17915;SDS011;9083;49.156;8.982;2023-04-06T11:45:24;20.13;;;7.57;;
17915;SDS011;9083;49.156;8.982;2023-04-06T11:47:57;26.00;;;7.50;;
17915;SDS011;9083;49.156;8.982;2023-04-06T11:50:24;12.60;;;6.77;;
17915;SDS011;9083;49.156;8.982;2023-04-06T11:52:57;13.23;;;7.47;;
17915;SDS011;9083;49.156;8.982;2023-04-06T11:55:25;9.07;;;6.43;;
17915;SDS011;9083;49.156;8.982;2023-04-06T11:57:52;10.43;;;6.70;;
17915;SDS011;9083;49.156;8.982;2023-04-06T12:00:20;14.67;;;6.67;;
17915;SDS011;9083;49.156;8.982;2023-04-06T12:02:47;10.10;;;6.60;;
17915;SDS011;9083;49.156;8.982;2023-04-06T12:05:13;8.80;;;6.30;;
17915;SDS011;9083;49.156;8.982;2023-04-06T12:07:40;10.57;;;5.40;;
17915;SDS011;9083;49.156;8.982;2023-04-06T12:10:06;6.90;;;5.30;;
17915;SDS011;9083;49.156;8.982;2023-04-06T12:12:34;8.43;;;5.90;;
17915;SDS011;9083;49.156;8.982;2023-04-06T12:15:01;7.93;;;6.57;;
17915;SDS011;9083;49.156;8.982;2023-04-06T12:17:27;12.70;;;6.80;;
17915;SDS011;9083;49.156;8.982;2023-04-06T12:19:54;18.73;;;7.50;;
17915;SDS011;9083;49.156;8.982;2023-04-06T12:22:20;10.60;;;6.30;;
17915;SDS011;9083;49.156;8.982;2023-04-06T12:24:47;7.60;;;4.57;;
17915;SDS011;9083;49.156;8.982;2023-04-06T12:27:13;9.07;;;6.00;;
17915;SDS011;9083;49.156;8.982;2023-04-06T12:29:41;10.17;;;6.00;;
17915;SDS011;9083;49.156;8.982;2023-04-06T12:32:08;10.67;;;5.97;;
17915;SDS011;9083;49.156;8.982;2023-04-06T12:34:34;9.20;;;6.30;;
17915;SDS011;9083;49.156;8.982;2023-04-06T12:37:00;6.20;;;5.53;;
17915;SDS011;9083;49.156;8.982;2023-04-06T12:39:27;9.37;;;6.03;;
17915;SDS011;9083;49.156;8.982;2023-04-06T12:41:54;6.67;;;5.67;;
17915;SDS011;9083;49.156;8.982;2023-04-06T12:44:21;7.50;;;5.30;;
17915;SDS011;9083;49.156;8.982;2023-04-06T12:46:49;14.43;;;6.33;;
17915;SDS011;9083;49.156;8.982;2023-04-06T12:49:16;9.93;;;6.30;;
17915;SDS011;9083;49.156;8.982;2023-04-06T12:51:44;11.53;;;6.53;;
17915;SDS011;9083;49.156;8.982;2023-04-06T12:54:10;15.00;;;6.67;;
17915;SDS011;9083;49.156;8.982;2023-04-06T12:56:37;17.87;;;7.50;;
17915;SDS011;9083;49.156;8.982;2023-04-06T12:59:03;18.47;;;7.57;;
17915;SDS011;9083;49.156;8.982;2023-04-06T13:01:30;23.37;;;6.77;;
17915;SDS011;9083;49.156;8.982;2023-04-06T13:03:58;54.53;;;8.27;;
17915;SDS011;9083;49.156;8.982;2023-04-06T13:06:24;9.37;;;6.40;;
17915;SDS011;9083;49.156;8.982;2023-04-06T13:08:52;12.27;;;5.83;;
17915;SDS011;9083;49.156;8.982;2023-04-06T13:11:19;9.17;;;5.53;;
17915;SDS011;9083;49.156;8.982;2023-04-06T13:13:48;19.60;;;7.13;;
17915;SDS011;9083;49.156;8.982;2023-04-06T13:16:14;7.93;;;6.17;;
17915;SDS011;9083;49.156;8.982;2023-04-06T13:18:41;7.97;;;6.40;;
17915;SDS011;9083;49.156;8.982;2023-04-06T13:21:09;8.90;;;6.10;;
17915;SDS011;9083;49.156;8.982;2023-04-06T13:23:39;12.00;;;6.40;;
17915;SDS011;9083;49.156;8.982;2023-04-06T13:26:06;27.07;;;8.43;;
17915;SDS011;9083;49.156;8.982;2023-04-06T13:28:34;18.03;;;7.50;;
17915;SDS011;9083;49.156;8.982;2023-04-06T13:31:02;15.80;;;7.00;;
17915;SDS011;9083;49.156;8.982;2023-04-06T13:33:28;9.03;;;6.93;;
17915;SDS011;9083;49.156;8.982;2023-04-06T13:35:55;11.00;;;5.60;;
17915;SDS011;9083;49.156;8.982;2023-04-06T13:38:23;7.57;;;5.80;;
17915;SDS011;9083;49.156;8.982;2023-04-06T13:40:50;11.87;;;6.50;;
17915;SDS011;9083;49.156;8.982;2023-04-06T13:43:16;11.10;;;6.73;;
17915;SDS011;9083;49.156;8.982;2023-04-06T13:45:48;9.40;;;6.53;;
17915;SDS011;9083;49.156;8.982;2023-04-06T13:48:14;8.40;;;6.27;;
17915;SDS011;9083;49.156;8.982;2023-04-06T13:50:40;13.50;;;6.47;;
17915;SDS011;9083;49.156;8.982;2023-04-06T13:53:07;8.17;;;6.17;;
17915;SDS011;9083;49.156;8.982;2023-04-06T13:55:34;10.23;;;6.90;;
17915;SDS011;9083;49.156;8.982;2023-04-06T13:58:01;11.00;;;6.13;;
17915;SDS011;9083;49.156;8.982;2023-04-06T14:00:27;8.97;;;6.30;;
17915;SDS011;9083;49.156;8.982;2023-04-06T14:02:54;8.77;;;6.13;;
17915;SDS011;9083;49.156;8.982;2023-04-06T14:05:20;10.83;;;5.83;;
17915;SDS011;9083;49.156;8.982;2023-04-06T14:07:48;13.97;;;5.53;;
17915;SDS011;9083;49.156;8.982;2023-04-06T14:10:15;8.37;;;5.70;;
17915;SDS011;9083;49.156;8.982;2023-04-06T14:12:43;25.03;;;8.03;;
17915;SDS011;9083;49.156;8.982;2023-04-06T14:15:10;15.53;;;6.67;;
17915;SDS011;9083;49.156;8.982;2023-04-06T14:17:37;11.70;;;6.47;;
17915;SDS011;9083;49.156;8.982;2023-04-06T14:20:04;18.70;;;9.07;;
17915;SDS011;9083;49.156;8.982;2023-04-06T14:22:31;8.73;;;5.50;;
17915;SDS011;9083;49.156;8.982;2023-04-06T14:24:58;15.57;;;5.87;;
17915;SDS011;9083;49.156;8.982;2023-04-06T14:27:24;11.33;;;6.23;;
17915;SDS011;9083;49.156;8.982;2023-04-06T14:29:52;10.53;;;6.60;;
17915;SDS011;9083;49.156;8.982;2023-04-06T14:32:19;8.03;;;6.93;;
17915;SDS011;9083;49.156;8.982;2023-04-06T14:34:46;13.80;;;6.80;;
17915;SDS011;9083;49.156;8.982;2023-04-06T14:37:12;21.27;;;7.73;;
17915;SDS011;9083;49.156;8.982;2023-04-06T14:39:39;12.53;;;6.77;;
17915;SDS011;9083;49.156;8.982;2023-04-06T14:42:05;12.37;;;6.77;;
17915;SDS011;9083;49.156;8.982;2023-04-06T14:44:32;12.27;;;7.27;;
17915;SDS011;9083;49.156;8.982;2023-04-06T14:47:00;9.27;;;5.37;;